Terminal Aerodrome Forecast
Issued by NWS

Home | Current Version | Previous Version | Graphics & Text | Print | Product List | Glossary On
Versions: 1 2 3 4 5 6 7 8 9 10 11 12 13 14 15 16 17 18 19
766
FTUS43 KBIS 281407 AAB
TAFJMS
TAF AMD
KJMS 281407Z 2814/2912 36015KT P6SM BKN010
      TEMPO 2814/2815 SCT010 BKN045
     FM281500 32013G23KT P6SM FEW010 SCT045
     FM281900 32014G25KT P6SM FEW045 FEW200
     FM290100 33009KT P6SM FEW060 FEW250
     FM290300 32005KT P6SM FEW045 FEW250=

USA.gov is the U.S. government's official web portal to all federal, state and local government web resources and services.